sensor_id;sensor_type;location;lat;lon;timestamp;pressure;altitude;pressure_sealevel;temperature;humidity
977;BME280;477;51.436;7.292;2023-11-22T00:00:20;59986.63;;;-146.42;100.00
977;BME280;477;51.436;7.292;2023-11-22T00:02:49;59986.63;;;-146.42;100.00
977;BME280;477;51.436;7.292;2023-11-22T00:05:18;59986.63;;;-146.42;100.00
977;BME280;477;51.436;7.292;2023-11-22T00:07:50;59986.63;;;-146.42;100.00
977;BME280;477;51.436;7.292;2023-11-22T00:10:19;59986.63;;;-146.42;100.00
977;BME280;477;51.436;7.292;2023-11-22T00:12:47;59986.63;;;-146.42;100.00
977;BME280;477;51.436;7.292;2023-11-22T00:15:17;59986.63;;;-146.42;100.00
977;BME280;477;51.436;7.292;2023-11-22T00:17:46;59986.63;;;-146.42;100.00
977;BME280;477;51.436;7.292;2023-11-22T00:20:15;59986.63;;;-146.42;100.00
977;BME280;477;51.436;7.292;2023-11-22T00:22:44;59986.63;;;-146.42;100.00
977;BME280;477;51.436;7.292;2023-11-22T00:25:16;59986.63;;;-146.42;100.00
977;BME280;477;51.436;7.292;2023-11-22T00:27:46;59986.63;;;-146.42;100.00
977;BME280;477;51.436;7.292;2023-11-22T00:30:15;59986.63;;;-146.42;100.00
977;BME280;477;51.436;7.292;2023-11-22T00:32:44;59986.63;;;-146.42;100.00
977;BME280;477;51.436;7.292;2023-11-22T00:35:15;59986.63;;;-146.42;100.00
977;BME280;477;51.436;7.292;2023-11-22T00:37:44;59986.63;;;-146.42;100.00
977;BME280;477;51.436;7.292;2023-11-22T00:40:15;59986.63;;;-146.42;100.00
977;BME280;477;51.436;7.292;2023-11-22T00:42:47;59986.63;;;-146.42;100.00
977;BME280;477;51.436;7.292;2023-11-22T00:45:16;59986.63;;;-146.42;100.00
977;BME280;477;51.436;7.292;2023-11-22T00:47:45;59986.63;;;-146.42;100.00
977;BME280;477;51.436;7.292;2023-11-22T00:50:14;59986.63;;;-146.42;100.00
977;BME280;477;51.436;7.292;2023-11-22T00:52:47;59986.63;;;-146.42;100.00
977;BME280;477;51.436;7.292;2023-11-22T00:55:19;59986.63;;;-146.42;100.00
977;BME280;477;51.436;7.292;2023-11-22T00:57:48;59986.63;;;-146.42;100.00
977;BME280;477;51.436;7.292;2023-11-22T01:00:17;59986.63;;;-146.42;100.00
977;BME280;477;51.436;7.292;2023-11-22T01:02:46;59986.63;;;-146.42;100.00
977;BME280;477;51.436;7.292;2023-11-22T01:05:15;59986.63;;;-146.42;100.00
977;BME280;477;51.436;7.292;2023-11-22T01:07:44;59986.63;;;-146.42;100.00
977;BME280;477;51.436;7.292;2023-11-22T01:10:13;59986.63;;;-146.42;100.00
977;BME280;477;51.436;7.292;2023-11-22T01:12:44;59986.63;;;-146.42;100.00
977;BME280;477;51.436;7.292;2023-11-22T01:15:13;59986.63;;;-146.42;100.00
977;BME280;477;51.436;7.292;2023-11-22T01:17:42;59986.63;;;-146.42;100.00
977;BME280;477;51.436;7.292;2023-11-22T01:20:12;59986.63;;;-146.42;100.00
977;BME280;477;51.436;7.292;2023-11-22T01:22:41;59986.63;;;-146.42;100.00
977;BME280;477;51.436;7.292;2023-11-22T01:25:11;59986.63;;;-146.42;100.00
977;BME280;477;51.436;7.292;2023-11-22T01:27:39;59986.63;;;-146.42;100.00
977;BME280;477;51.436;7.292;2023-11-22T01:30:10;59986.63;;;-146.42;100.00
977;BME280;477;51.436;7.292;2023-11-22T01:32:39;59986.63;;;-146.42;100.00
977;BME280;477;51.436;7.292;2023-11-22T01:35:08;59986.63;;;-146.42;100.00
977;BME280;477;51.436;7.292;2023-11-22T01:37:36;59986.63;;;-146.42;100.00
977;BME280;477;51.436;7.292;2023-11-22T01:40:07;59986.63;;;-146.42;100.00
977;BME280;477;51.436;7.292;2023-11-22T01:42:37;59986.63;;;-146.42;100.00
977;BME280;477;51.436;7.292;2023-11-22T01:45:11;59986.63;;;-146.42;100.00
977;BME280;477;51.436;7.292;2023-11-22T01:47:40;59986.63;;;-146.42;100.00
977;BME280;477;51.436;7.292;2023-11-22T01:50:10;59986.63;;;-146.42;100.00
977;BME280;477;51.436;7.292;2023-11-22T01:52:39;59986.63;;;-146.42;100.00
977;BME280;477;51.436;7.292;2023-11-22T01:55:10;59986.63;;;-146.42;100.00
977;BME280;477;51.436;7.292;2023-11-22T01:57:38;59986.63;;;-146.42;100.00
977;BME280;477;51.436;7.292;2023-11-22T02:00:13;59986.63;;;-146.42;100.00
977;BME280;477;51.436;7.292;2023-11-22T02:02:43;59986.63;;;-146.42;100.00
977;BME280;477;51.436;7.292;2023-11-22T02:05:12;59986.63;;;-146.42;100.00
977;BME280;477;51.436;7.292;2023-11-22T02:07:42;59986.63;;;-146.42;100.00
977;BME280;477;51.436;7.292;2023-11-22T02:10:11;59986.63;;;-146.42;100.00
977;BME280;477;51.436;7.292;2023-11-22T02:12:40;59986.63;;;-146.42;100.00
977;BME280;477;51.436;7.292;2023-11-22T02:15:12;59986.63;;;-146.42;100.00
977;BME280;477;51.436;7.292;2023-11-22T02:17:40;59986.63;;;-146.42;100.00
977;BME280;477;51.436;7.292;2023-11-22T02:20:11;59986.63;;;-146.42;100.00
977;BME280;477;51.436;7.292;2023-11-22T02:22:44;59986.63;;;-146.42;100.00
977;BME280;477;51.436;7.292;2023-11-22T02:25:16;59986.63;;;-146.42;100.00
977;BME280;477;51.436;7.292;2023-11-22T02:27:45;59986.63;;;-146.42;100.00
977;BME280;477;51.436;7.292;2023-11-22T02:30:14;59986.63;;;-146.42;100.00
977;BME280;477;51.436;7.292;2023-11-22T02:32:43;59986.63;;;-146.42;100.00
977;BME280;477;51.436;7.292;2023-11-22T02:35:12;59986.63;;;-146.42;100.00
977;BME280;477;51.436;7.292;2023-11-22T02:37:45;59986.63;;;-146.42;100.00
977;BME280;477;51.436;7.292;2023-11-22T02:40:18;59986.63;;;-146.42;100.00
977;BME280;477;51.436;7.292;2023-11-22T02:42:47;59986.63;;;-146.42;100.00
977;BME280;477;51.436;7.292;2023-11-22T02:45:17;59986.63;;;-146.42;100.00
977;BME280;477;51.436;7.292;2023-11-22T02:47:46;59986.63;;;-146.42;100.00
977;BME280;477;51.436;7.292;2023-11-22T02:50:15;59986.63;;;-146.42;100.00
977;BME280;477;51.436;7.292;2023-11-22T02:52:45;59986.63;;;-146.42;100.00
977;BME280;477;51.436;7.292;2023-11-22T02:55:14;59986.63;;;-146.42;100.00
977;BME280;477;51.436;7.292;2023-11-22T02:57:44;59986.63;;;-146.42;100.00
977;BME280;477;51.436;7.292;2023-11-22T03:00:14;59986.63;;;-146.42;100.00
977;BME280;477;51.436;7.292;2023-11-22T03:02:44;59986.63;;;-146.42;100.00
977;BME280;477;51.436;7.292;2023-11-22T03:05:14;59986.63;;;-146.42;100.00
977;BME280;477;51.436;7.292;2023-11-22T03:07:43;59986.63;;;-146.42;100.00
977;BME280;477;51.436;7.292;2023-11-22T03:10:12;59986.63;;;-146.42;100.00
977;BME280;477;51.436;7.292;2023-11-22T03:12:41;59986.63;;;-146.42;100.00
977;BME280;477;51.436;7.292;2023-11-22T03:15:11;59986.63;;;-146.42;100.00
977;BME280;477;51.436;7.292;2023-11-22T03:17:40;59986.63;;;-146.42;100.00
977;BME280;477;51.436;7.292;2023-11-22T03:20:09;59986.63;;;-146.42;100.00
977;BME280;477;51.436;7.292;2023-11-22T03:22:39;59986.63;;;-146.42;100.00
977;BME280;477;51.436;7.292;2023-11-22T03:25:08;59986.63;;;-146.42;100.00
977;BME280;477;51.436;7.292;2023-11-22T03:27:38;59986.63;;;-146.42;100.00
977;BME280;477;51.436;7.292;2023-11-22T03:30:08;59986.63;;;-146.42;100.00
977;BME280;477;51.436;7.292;2023-11-22T03:32:41;59986.63;;;-146.42;100.00
977;BME280;477;51.436;7.292;2023-11-22T03:35:11;59986.63;;;-146.42;100.00
977;BME280;477;51.436;7.292;2023-11-22T03:37:40;59986.63;;;-146.42;100.00
977;BME280;477;51.436;7.292;2023-11-22T03:40:10;59986.63;;;-146.42;100.00
977;BME280;477;51.436;7.292;2023-11-22T03:42:41;59986.63;;;-146.42;100.00
977;BME280;477;51.436;7.292;2023-11-22T03:45:10;59986.63;;;-146.42;100.00
977;BME280;477;51.436;7.292;2023-11-22T03:47:41;59986.63;;;-146.42;100.00
977;BME280;477;51.436;7.292;2023-11-22T03:50:11;59986.63;;;-146.42;100.00
977;BME280;477;51.436;7.292;2023-11-22T03:52:42;59986.63;;;-146.42;100.00
977;BME280;477;51.436;7.292;2023-11-22T03:55:11;59986.63;;;-146.42;100.00
977;BME280;477;51.436;7.292;2023-11-22T03:57:39;59986.63;;;-146.42;100.00
977;BME280;477;51.436;7.292;2023-11-22T04:00:11;59986.63;;;-146.42;100.00
977;BME280;477;51.436;7.292;2023-11-22T04:02:42;59986.63;;;-146.42;100.00
977;BME280;477;51.436;7.292;2023-11-22T04:05:11;59986.63;;;-146.42;100.00
977;BME280;477;51.436;7.292;2023-11-22T04:07:40;59986.63;;;-146.42;100.00
977;BME280;477;51.436;7.292;2023-11-22T04:10:10;59986.63;;;-146.42;100.00
977;BME280;477;51.436;7.292;2023-11-22T04:12:39;59986.63;;;-146.42;100.00
977;BME280;477;51.436;7.292;2023-11-22T04:15:08;59986.63;;;-146.42;100.00
977;BME280;477;51.436;7.292;2023-11-22T04:17:38;59986.63;;;-146.42;100.00
977;BME280;477;51.436;7.292;2023-11-22T04:20:11;59986.63;;;-146.42;100.00
977;BME280;477;51.436;7.292;2023-11-22T04:22:45;59986.63;;;-146.42;100.00
977;BME280;477;51.436;7.292;2023-11-22T04:25:14;59986.63;;;-146.42;100.00
977;BME280;477;51.436;7.292;2023-11-22T04:27:42;59986.63;;;-146.42;100.00
977;BME280;477;51.436;7.292;2023-11-22T04:30:12;59986.63;;;-146.42;100.00
977;BME280;477;51.436;7.292;2023-11-22T04:32:42;59986.63;;;-146.42;100.00
977;BME280;477;51.436;7.292;2023-11-22T04:35:14;59986.63;;;-146.42;100.00
977;BME280;477;51.436;7.292;2023-11-22T04:37:44;59986.63;;;-146.42;100.00
977;BME280;477;51.436;7.292;2023-11-22T04:40:15;59986.63;;;-146.42;100.00
977;BME280;477;51.436;7.292;2023-11-22T04:42:44;59986.63;;;-146.42;100.00
977;BME280;477;51.436;7.292;2023-11-22T04:45:14;59986.63;;;-146.42;100.00
977;BME280;477;51.436;7.292;2023-11-22T04:47:43;59986.63;;;-146.42;100.00
977;BME280;477;51.436;7.292;2023-11-22T04:50:14;59986.63;;;-146.42;100.00
977;BME280;477;51.436;7.292;2023-11-22T04:52:43;59986.63;;;-146.42;100.00
977;BME280;477;51.436;7.292;2023-11-22T04:55:11;59986.63;;;-146.42;100.00
977;BME280;477;51.436;7.292;2023-11-22T04:57:40;59986.63;;;-146.42;100.00
977;BME280;477;51.436;7.292;2023-11-22T05:00:13;59986.63;;;-146.42;100.00
977;BME280;477;51.436;7.292;2023-11-22T05:02:41;59986.63;;;-146.42;100.00
977;BME280;477;51.436;7.292;2023-11-22T05:05:10;59986.63;;;-146.42;100.00
977;BME280;477;51.436;7.292;2023-11-22T05:07:40;59986.63;;;-146.42;100.00
977;BME280;477;51.436;7.292;2023-11-22T05:10:09;59986.63;;;-146.42;100.00
977;BME280;477;51.436;7.292;2023-11-22T05:12:39;59986.63;;;-146.42;100.00
977;BME280;477;51.436;7.292;2023-11-22T05:15:08;59986.63;;;-146.42;100.00
977;BME280;477;51.436;7.292;2023-11-22T05:17:38;59986.63;;;-146.42;100.00
977;BME280;477;51.436;7.292;2023-11-22T05:20:08;59986.63;;;-146.42;100.00
977;BME280;477;51.436;7.292;2023-11-22T05:22:37;59986.63;;;-146.42;100.00
977;BME280;477;51.436;7.292;2023-11-22T05:25:08;59986.63;;;-146.42;100.00
977;BME280;477;51.436;7.292;2023-11-22T05:27:38;59986.63;;;-146.42;100.00
977;BME280;477;51.436;7.292;2023-11-22T05:30:08;59986.63;;;-146.42;100.00
977;BME280;477;51.436;7.292;2023-11-22T05:32:38;59986.63;;;-146.42;100.00
977;BME280;477;51.436;7.292;2023-11-22T05:35:08;59986.63;;;-146.42;100.00
977;BME280;477;51.436;7.292;2023-11-22T05:37:37;59986.63;;;-146.42;100.00
977;BME280;477;51.436;7.292;2023-11-22T05:40:10;59986.63;;;-146.42;100.00
977;BME280;477;51.436;7.292;2023-11-22T05:42:40;59986.63;;;-146.42;100.00
977;BME280;477;51.436;7.292;2023-11-22T05:45:09;59986.63;;;-146.42;100.00
977;BME280;477;51.436;7.292;2023-11-22T05:47:38;59986.63;;;-146.42;100.00
977;BME280;477;51.436;7.292;2023-11-22T05:50:09;59986.63;;;-146.42;100.00
977;BME280;477;51.436;7.292;2023-11-22T05:52:38;59986.63;;;-146.42;100.00
977;BME280;477;51.436;7.292;2023-11-22T05:55:10;59986.63;;;-146.42;100.00
977;BME280;477;51.436;7.292;2023-11-22T05:57:41;59986.63;;;-146.42;100.00
977;BME280;477;51.436;7.292;2023-11-22T06:00:13;59986.63;;;-146.42;100.00
977;BME280;477;51.436;7.292;2023-11-22T06:02:43;59986.63;;;-146.42;100.00
977;BME280;477;51.436;7.292;2023-11-22T06:05:12;59986.63;;;-146.42;100.00
977;BME280;477;51.436;7.292;2023-11-22T06:07:40;59986.63;;;-146.42;100.00
977;BME280;477;51.436;7.292;2023-11-22T06:10:11;59986.63;;;-146.42;100.00
977;BME280;477;51.436;7.292;2023-11-22T06:12:42;59986.63;;;-146.42;100.00
977;BME280;477;51.436;7.292;2023-11-22T06:15:14;59986.63;;;-146.42;100.00
977;BME280;477;51.436;7.292;2023-11-22T06:17:43;59986.63;;;-146.42;100.00
977;BME280;477;51.436;7.292;2023-11-22T06:20:12;59986.63;;;-146.42;100.00
977;BME280;477;51.436;7.292;2023-11-22T06:22:42;59986.63;;;-146.42;100.00
977;BME280;477;51.436;7.292;2023-11-22T06:25:13;59986.63;;;-146.42;100.00
977;BME280;477;51.436;7.292;2023-11-22T06:27:42;59986.63;;;-146.42;100.00
977;BME280;477;51.436;7.292;2023-11-22T06:30:11;59986.63;;;-146.42;100.00
977;BME280;477;51.436;7.292;2023-11-22T06:32:42;59986.63;;;-146.42;100.00
977;BME280;477;51.436;7.292;2023-11-22T06:35:11;59986.63;;;-146.42;100.00
977;BME280;477;51.436;7.292;2023-11-22T06:37:42;59986.63;;;-146.42;100.00
977;BME280;477;51.436;7.292;2023-11-22T06:40:13;59986.63;;;-146.42;100.00
977;BME280;477;51.436;7.292;2023-11-22T06:42:44;59986.63;;;-146.42;100.00
977;BME280;477;51.436;7.292;2023-11-22T06:45:13;59986.63;;;-146.42;100.00
977;BME280;477;51.436;7.292;2023-11-22T06:47:43;59986.63;;;-146.42;100.00
977;BME280;477;51.436;7.292;2023-11-22T06:50:12;59986.63;;;-146.42;100.00
977;BME280;477;51.436;7.292;2023-11-22T06:52:41;59986.63;;;-146.42;100.00
977;BME280;477;51.436;7.292;2023-11-22T06:55:10;59986.63;;;-146.42;100.00
977;BME280;477;51.436;7.292;2023-11-22T06:57:41;59986.63;;;-146.42;100.00
977;BME280;477;51.436;7.292;2023-11-22T07:00:11;59986.63;;;-146.42;100.00
977;BME280;477;51.436;7.292;2023-11-22T07:02:40;59986.63;;;-146.42;100.00
977;BME280;477;51.436;7.292;2023-11-22T07:05:10;59986.63;;;-146.42;100.00
977;BME280;477;51.436;7.292;2023-11-22T07:07:41;59986.63;;;-146.42;100.00
977;BME280;477;51.436;7.292;2023-11-22T07:10:10;59986.63;;;-146.42;100.00
977;BME280;477;51.436;7.292;2023-11-22T07:12:42;59986.63;;;-146.42;100.00
977;BME280;477;51.436;7.292;2023-11-22T07:15:12;59986.63;;;-146.42;100.00
977;BME280;477;51.436;7.292;2023-11-22T07:17:41;59986.63;;;-146.42;100.00
977;BME280;477;51.436;7.292;2023-11-22T07:20:10;59986.63;;;-146.42;100.00
977;BME280;477;51.436;7.292;2023-11-22T07:22:44;59986.63;;;-146.42;100.00
977;BME280;477;51.436;7.292;2023-11-22T07:25:13;59986.63;;;-146.42;100.00
977;BME280;477;51.436;7.292;2023-11-22T07:27:48;59986.63;;;-146.42;100.00
977;BME280;477;51.436;7.292;2023-11-22T07:30:18;59986.63;;;-146.42;100.00
977;BME280;477;51.436;7.292;2023-11-22T07:32:50;59986.63;;;-146.42;100.00
977;BME280;477;51.436;7.292;2023-11-22T07:35:20;59986.63;;;-146.42;100.00
977;BME280;477;51.436;7.292;2023-11-22T07:37:50;59986.63;;;-146.42;100.00
977;BME280;477;51.436;7.292;2023-11-22T07:40:19;59986.63;;;-146.42;100.00
977;BME280;477;51.436;7.292;2023-11-22T07:42:51;59986.63;;;-146.42;100.00
977;BME280;477;51.436;7.292;2023-11-22T07:45:19;59986.63;;;-146.42;100.00
977;BME280;477;51.436;7.292;2023-11-22T07:47:51;59986.63;;;-146.42;100.00
977;BME280;477;51.436;7.292;2023-11-22T07:50:21;59986.63;;;-146.42;100.00
977;BME280;477;51.436;7.292;2023-11-22T07:52:51;59986.63;;;-146.42;100.00
977;BME280;477;51.436;7.292;2023-11-22T07:55:20;59986.63;;;-146.42;100.00
977;BME280;477;51.436;7.292;2023-11-22T07:57:51;59986.63;;;-146.42;100.00
977;BME280;477;51.436;7.292;2023-11-22T08:00:20;59986.63;;;-146.42;100.00
977;BME280;477;51.436;7.292;2023-11-22T08:02:51;59986.63;;;-146.42;100.00
977;BME280;477;51.436;7.292;2023-11-22T08:05:22;59986.63;;;-146.42;100.00
977;BME280;477;51.436;7.292;2023-11-22T08:07:51;59986.63;;;-146.42;100.00
977;BME280;477;51.436;7.292;2023-11-22T08:10:20;59986.63;;;-146.42;100.00
977;BME280;477;51.436;7.292;2023-11-22T08:12:51;59986.63;;;-146.42;100.00
977;BME280;477;51.436;7.292;2023-11-22T08:15:20;59986.63;;;-146.42;100.00
977;BME280;477;51.436;7.292;2023-11-22T08:17:49;59986.63;;;-146.42;100.00
977;BME280;477;51.436;7.292;2023-11-22T08:20:18;59986.63;;;-146.42;100.00
977;BME280;477;51.436;7.292;2023-11-22T08:22:47;59986.63;;;-146.42;100.00
977;BME280;477;51.436;7.292;2023-11-22T08:25:18;59986.63;;;-146.42;100.00
977;BME280;477;51.436;7.292;2023-11-22T08:27:47;59986.63;;;-146.42;100.00
977;BME280;477;51.436;7.292;2023-11-22T08:30:19;59986.63;;;-146.42;100.00
977;BME280;477;51.436;7.292;2023-11-22T08:32:48;59986.63;;;-146.42;100.00
977;BME280;477;51.436;7.292;2023-11-22T08:35:22;59986.63;;;-146.42;100.00
977;BME280;477;51.436;7.292;2023-11-22T08:37:52;59986.63;;;-146.42;100.00
977;BME280;477;51.436;7.292;2023-11-22T08:40:20;59986.63;;;-146.42;100.00
977;BME280;477;51.436;7.292;2023-11-22T08:42:50;59986.63;;;-146.42;100.00
977;BME280;477;51.436;7.292;2023-11-22T08:45:21;59986.63;;;-146.42;100.00
977;BME280;477;51.436;7.292;2023-11-22T08:47:49;59986.63;;;-146.42;100.00
977;BME280;477;51.436;7.292;2023-11-22T08:50:18;59986.63;;;-146.42;100.00
977;BME280;477;51.436;7.292;2023-11-22T08:52:48;59986.63;;;-146.42;100.00
977;BME280;477;51.436;7.292;2023-11-22T08:55:20;59986.63;;;-146.42;100.00
977;BME280;477;51.436;7.292;2023-11-22T08:57:50;59986.63;;;-146.42;100.00
977;BME280;477;51.436;7.292;2023-11-22T09:00:21;59986.63;;;-146.42;100.00
977;BME280;477;51.436;7.292;2023-11-22T09:02:50;59986.63;;;-146.42;100.00
977;BME280;477;51.436;7.292;2023-11-22T09:05:19;59986.63;;;-146.42;100.00
977;BME280;477;51.436;7.292;2023-11-22T09:07:48;59986.63;;;-146.42;100.00
977;BME280;477;51.436;7.292;2023-11-22T09:10:19;59986.63;;;-146.42;100.00
977;BME280;477;51.436;7.292;2023-11-22T09:12:49;59986.63;;;-146.42;100.00
977;BME280;477;51.436;7.292;2023-11-22T09:15:21;59986.63;;;-146.42;100.00
977;BME280;477;51.436;7.292;2023-11-22T09:17:54;59986.63;;;-146.42;100.00
977;BME280;477;51.436;7.292;2023-11-22T09:20:23;59986.63;;;-146.42;100.00
977;BME280;477;51.436;7.292;2023-11-22T09:22:53;59986.63;;;-146.42;100.00
977;BME280;477;51.436;7.292;2023-11-22T09:25:24;59986.63;;;-146.42;100.00
977;BME280;477;51.436;7.292;2023-11-22T09:27:55;59986.63;;;-146.42;100.00
977;BME280;477;51.436;7.292;2023-11-22T09:30:29;59986.63;;;-146.42;100.00
977;BME280;477;51.436;7.292;2023-11-22T09:33:04;59986.63;;;-146.42;100.00
977;BME280;477;51.436;7.292;2023-11-22T09:35:33;59986.63;;;-146.42;100.00
977;BME280;477;51.436;7.292;2023-11-22T09:38:04;59986.63;;;-146.42;100.00
977;BME280;477;51.436;7.292;2023-11-22T09:40:39;59986.63;;;-146.42;100.00
977;BME280;477;51.436;7.292;2023-11-22T09:43:09;59986.63;;;-146.42;100.00
977;BME280;477;51.436;7.292;2023-11-22T09:45:39;59986.63;;;-146.42;100.00
977;BME280;477;51.436;7.292;2023-11-22T09:48:15;59986.63;;;-146.42;100.00
977;BME280;477;51.436;7.292;2023-11-22T09:50:54;59986.63;;;-146.42;100.00
977;BME280;477;51.436;7.292;2023-11-22T09:53:32;59986.63;;;-146.42;100.00
977;BME280;477;51.436;7.292;2023-11-22T09:56:03;59986.63;;;-146.42;100.00
977;BME280;477;51.436;7.292;2023-11-22T09:58:35;59986.63;;;-146.42;100.00
977;BME280;477;51.436;7.292;2023-11-22T10:01:10;59986.63;;;-146.42;100.00
977;BME280;477;51.436;7.292;2023-11-22T10:03:41;59986.63;;;-146.42;100.00
977;BME280;477;51.436;7.292;2023-11-22T10:06:10;59986.63;;;-146.42;100.00
977;BME280;477;51.436;7.292;2023-11-22T10:08:39;59986.63;;;-146.42;100.00
977;BME280;477;51.436;7.292;2023-11-22T10:11:08;59986.63;;;-146.42;100.00
977;BME280;477;51.436;7.292;2023-11-22T10:13:37;59986.63;;;-146.42;100.00
977;BME280;477;51.436;7.292;2023-11-22T10:16:13;59986.63;;;-146.42;100.00
977;BME280;477;51.436;7.292;2023-11-22T10:18:47;59986.63;;;-146.42;100.00
977;BME280;477;51.436;7.292;2023-11-22T10:21:22;59986.63;;;-146.42;100.00
977;BME280;477;51.436;7.292;2023-11-22T10:23:54;59986.63;;;-146.42;100.00
977;BME280;477;51.436;7.292;2023-11-22T10:26:24;59986.63;;;-146.42;100.00
977;BME280;477;51.436;7.292;2023-11-22T10:28:57;59986.63;;;-146.42;100.00
977;BME280;477;51.436;7.292;2023-11-22T10:31:28;59986.63;;;-146.42;100.00
977;BME280;477;51.436;7.292;2023-11-22T10:33:57;59986.63;;;-146.42;100.00
977;BME280;477;51.436;7.292;2023-11-22T10:36:26;59986.63;;;-146.42;100.00
977;BME280;477;51.436;7.292;2023-11-22T10:38:55;59986.63;;;-146.42;100.00
977;BME280;477;51.436;7.292;2023-11-22T10:41:27;59986.63;;;-146.42;100.00
977;BME280;477;51.436;7.292;2023-11-22T10:43:56;59986.63;;;-146.42;100.00
977;BME280;477;51.436;7.292;2023-11-22T10:46:30;59986.63;;;-146.42;100.00
977;BME280;477;51.436;7.292;2023-11-22T10:49:02;59986.63;;;-146.42;100.00
977;BME280;477;51.436;7.292;2023-11-22T10:51:32;59986.63;;;-146.42;100.00
977;BME280;477;51.436;7.292;2023-11-22T10:54:04;59986.63;;;-146.42;100.00
977;BME280;477;51.436;7.292;2023-11-22T10:56:38;59986.63;;;-146.42;100.00
977;BME280;477;51.436;7.292;2023-11-22T10:59:14;59986.63;;;-146.42;100.00
977;BME280;477;51.436;7.292;2023-11-22T11:01:48;59986.63;;;-146.42;100.00
977;BME280;477;51.436;7.292;2023-11-22T11:04:24;59986.63;;;-146.42;100.00
977;BME280;477;51.436;7.292;2023-11-22T11:06:56;59986.63;;;-146.42;100.00
977;BME280;477;51.436;7.292;2023-11-22T11:09:25;59986.63;;;-146.42;100.00
977;BME280;477;51.436;7.292;2023-11-22T11:12:00;59986.63;;;-146.42;100.00
977;BME280;477;51.436;7.292;2023-11-22T11:14:35;59986.63;;;-146.42;100.00
977;BME280;477;51.436;7.292;2023-11-22T11:17:06;59986.63;;;-146.42;100.00
977;BME280;477;51.436;7.292;2023-11-22T11:19:37;59986.63;;;-146.42;100.00
977;BME280;477;51.436;7.292;2023-11-22T11:22:08;59986.63;;;-146.42;100.00
977;BME280;477;51.436;7.292;2023-11-22T11:24:41;59986.63;;;-146.42;100.00
977;BME280;477;51.436;7.292;2023-11-22T11:27:12;59986.63;;;-146.42;100.00
977;BME280;477;51.436;7.292;2023-11-22T11:29:42;59986.63;;;-146.42;100.00
977;BME280;477;51.436;7.292;2023-11-22T11:32:17;59986.63;;;-146.42;100.00
977;BME280;477;51.436;7.292;2023-11-22T11:34:58;59986.63;;;-146.42;100.00
977;BME280;477;51.436;7.292;2023-11-22T11:37:29;59986.63;;;-146.42;100.00
977;BME280;477;51.436;7.292;2023-11-22T11:39:58;59986.63;;;-146.42;100.00
977;BME280;477;51.436;7.292;2023-11-22T11:42:27;102059.97;;;5.67;100.00
977;BME280;477;51.436;7.292;2023-11-22T11:45:06;59986.63;;;-146.42;100.00
977;BME280;477;51.436;7.292;2023-11-22T11:47:37;59986.63;;;-146.42;100.00
977;BME280;477;51.436;7.292;2023-11-22T11:50:07;59986.63;;;-146.42;100.00
977;BME280;477;51.436;7.292;2023-11-22T11:52:38;102048.78;;;5.61;100.00
977;BME280;477;51.436;7.292;2023-11-22T11:55:09;102077.22;;;5.76;100.00
977;BME280;477;51.436;7.292;2023-11-22T11:57:37;102077.22;;;5.76;100.00
977;BME280;477;51.436;7.292;2023-11-22T12:00:07;102058.28;;;5.85;100.00
977;BME280;477;51.436;7.292;2023-11-22T12:02:38;102052.25;;;5.87;100.00
977;BME280;477;51.436;7.292;2023-11-22T12:05:07;102052.25;;;5.87;100.00
977;BME280;477;51.436;7.292;2023-11-22T12:07:37;102020.41;;;5.91;100.00
977;BME280;477;51.436;7.292;2023-11-22T12:10:07;102012.63;;;5.91;100.00
977;BME280;477;51.436;7.292;2023-11-22T12:12:36;102010.88;;;5.90;100.00
977;BME280;477;51.436;7.292;2023-11-22T12:15:10;101980.72;;;5.48;100.00
977;BME280;477;51.436;7.292;2023-11-22T12:17:41;101981.63;;;5.91;100.00
977;BME280;477;51.436;7.292;2023-11-22T12:20:11;101969.53;;;5.87;100.00
977;BME280;477;51.436;7.292;2023-11-22T12:22:42;101957.44;;;5.88;100.00
977;BME280;477;51.436;7.292;2023-11-22T12:25:12;101949.72;;;5.92;100.00
977;BME280;477;51.436;7.292;2023-11-22T12:27:42;101936.78;;;5.94;100.00
977;BME280;477;51.436;7.292;2023-11-22T12:30:29;101946.25;;;-99.51;100.00
977;BME280;477;51.436;7.292;2023-11-22T12:33:05;101946.25;;;5.99;100.00
977;BME280;477;51.436;7.292;2023-11-22T12:35:35;101929.88;;;5.99;100.00
977;BME280;477;51.436;7.292;2023-11-22T12:38:06;59986.63;;;-146.42;100.00
977;BME280;477;51.436;7.292;2023-11-22T12:40:35;59986.63;;;-146.42;100.00
977;BME280;477;51.436;7.292;2023-11-22T12:43:04;59986.63;;;-146.42;100.00
977;BME280;477;51.436;7.292;2023-11-22T12:45:34;59986.63;;;-146.42;100.00
977;BME280;477;51.436;7.292;2023-11-22T12:48:22;59986.63;;;-146.42;100.00
977;BME280;477;51.436;7.292;2023-11-22T12:50:57;59986.63;;;-146.42;100.00
977;BME280;477;51.436;7.292;2023-11-22T12:53:27;59986.63;;;-146.42;100.00
977;BME280;477;51.436;7.292;2023-11-22T12:55:56;59986.63;;;-146.42;100.00
977;BME280;477;51.436;7.292;2023-11-22T12:58:26;59986.63;;;-146.42;100.00
977;BME280;477;51.436;7.292;2023-11-22T13:00:55;59986.63;;;-146.42;100.00
977;BME280;477;51.436;7.292;2023-11-22T13:03:29;59986.63;;;-146.42;100.00
977;BME280;477;51.436;7.292;2023-11-22T13:05:59;59986.63;;;-146.42;100.00
977;BME280;477;51.436;7.292;2023-11-22T13:08:28;59986.63;;;-146.42;100.00
977;BME280;477;51.436;7.292;2023-11-22T13:10:57;59986.63;;;-146.42;100.00
977;BME280;477;51.436;7.292;2023-11-22T13:13:27;59986.63;;;-146.42;100.00
977;BME280;477;51.436;7.292;2023-11-22T13:15:58;59986.63;;;-146.42;100.00
977;BME280;477;51.436;7.292;2023-11-22T13:18:29;59986.63;;;-146.42;100.00
977;BME280;477;51.436;7.292;2023-11-22T13:20:58;59986.63;;;-146.42;100.00
977;BME280;477;51.436;7.292;2023-11-22T13:23:27;59986.63;;;-146.42;100.00
977;BME280;477;51.436;7.292;2023-11-22T13:25:55;59986.63;;;-146.42;100.00
977;BME280;477;51.436;7.292;2023-11-22T13:28:24;59986.63;;;-146.42;100.00